Time;durP1;ratioP1;P1;durP2;ratioP2;P2;SDS_P1;SDS_P2;PMS_P1;PMS_P2;Temp;Humidity;BMP_temperature;BMP_pressure;BME280_temperature;BME280_humidity;BME280_pressure;Samples;Min_cycle;Max_cycle;Signal;HPM_P1;HPM_P2
2022/09/15 00:00:08;;;;;;;2.97;1.48;;;19.80;99.90;;;;;;5236828;28;20044;-74
2022/09/15 00:02:39;;;;;;;2.75;1.17;;;19.80;99.90;;;;;;5243446;28;20032;-74
2022/09/15 00:05:18;;;;;;;2.67;1.20;;;19.80;99.90;;;;;;5220248;28;20061;-74
2022/09/15 00:07:49;;;;;;;2.20;1.30;;;19.90;99.90;;;;;;5196780;28;20344;-74
2022/09/15 00:10:27;;;;;;;2.70;1.45;;;19.90;99.90;;;;;;5200025;28;20483;-74
2022/09/15 00:12:59;;;;;;;2.15;1.40;;;19.80;99.90;;;;;;5202649;28;20203;-74
2022/09/15 00:15:33;;;;;;;1.23;1.10;;;19.90;99.90;;;;;;5218317;28;20044;-74
2022/09/15 00:18:06;;;;;;;1.92;1.38;;;19.90;99.90;;;;;;5184320;28;20045;-74
2022/09/15 00:20:47;;;;;;;1.80;1.17;;;19.90;99.90;;;;;;5208304;28;20237;-75
2022/09/15 00:23:19;;;;;;;2.65;1.35;;;19.90;99.90;;;;;;5198946;28;20060;-74
2022/09/15 00:25:56;;;;;;;1.17;1.13;;;20.00;99.90;;;;;;5199471;28;20055;-74
2022/09/15 00:28:27;;;;;;;2.10;1.10;;;20.00;99.90;;;;;;5223388;28;20356;-74
2022/09/15 00:31:01;;;;;;;1.40;1.30;;;20.00;99.90;;;;;;5221643;28;20305;-74
2022/09/15 00:33:35;;;;;;;3.00;1.17;;;20.00;99.90;;;;;;5171750;28;20044;-74
2022/09/15 00:36:13;;;;;;;1.85;1.70;;;20.00;99.90;;;;;;5208850;28;20055;-74
2022/09/15 00:38:51;;;;;;;3.00;1.23;;;20.00;99.90;;;;;;5201603;28;20211;-74
2022/09/15 00:41:23;;;;;;;;;;;20.00;99.90;;;;;;5201555;28;20045;-74
2022/09/15 00:44:01;;;;;;;2.85;1.42;;;20.00;99.90;;;;;;5186939;28;20023;-74
2022/09/15 00:46:40;;;;;;;1.58;1.10;;;20.00;99.90;;;;;;5188741;28;20198;-72
2022/09/15 00:49:29;;;;;;;3.55;1.10;;;20.00;99.90;;;;;;5202311;28;20052;-72
2022/09/15 00:52:17;;;;;;;1.23;1.13;;;20.00;99.90;;;;;;5184647;28;20040;-74
2022/09/15 00:55:02;;;;;;;2.97;1.58;;;20.00;99.90;;;;;;5202855;28;20202;-75
2022/09/15 00:57:52;;;;;;;3.47;1.30;;;19.90;99.90;;;;;;5201507;28;20071;-74
2022/09/15 01:00:28;;;;;;;2.13;1.30;;;19.80;99.90;;;;;;5222575;28;20147;-74
2022/09/15 01:03:05;;;;;;;1.30;1.20;;;19.90;99.90;;;;;;5187412;28;20052;-72
2022/09/15 01:05:52;;;;;;;1.20;1.02;;;19.90;99.90;;;;;;5192918;28;20060;-74
2022/09/15 01:08:55;;;;;;;2.65;1.33;;;19.80;99.90;;;;;;5178751;28;20036;-74
2022/09/15 01:11:33;;;;;;;2.03;1.60;;;19.80;99.90;;;;;;5199162;28;20111;-74
2022/09/15 01:14:09;;;;;;;2.67;1.55;;;19.80;99.90;;;;;;5204553;28;20207;-74
2022/09/15 01:17:34;;;;;;;3.22;1.50;;;19.80;99.90;;;;;;5186187;28;20040;-73
2022/09/15 01:21:07;;;;;;;4.20;1.83;;;19.80;99.90;;;;;;5218660;28;20037;-72
2022/09/15 01:24:10;;;;;;;4.13;1.70;;;19.80;99.90;;;;;;5131088;28;20061;-73
2022/09/15 01:27:02;;;;;;;3.92;1.30;;;19.90;99.90;;;;;;5149339;28;20226;-72
2022/09/15 01:29:57;;;;;;;1.63;1.20;;;20.00;99.90;;;;;;5141631;28;20262;-73
2022/09/15 01:33:02;;;;;;;1.60;1.10;;;20.00;99.90;;;;;;5141871;28;20099;-73
2022/09/15 01:36:00;;;;;;;1.75;1.38;;;20.10;99.90;;;;;;5158470;28;20350;-73
2022/09/15 01:39:03;;;;;;;2.40;1.27;;;20.10;99.90;;;;;;5138581;28;20046;-72
2022/09/15 01:41:44;;;;;;;4.18;1.35;;;20.00;99.90;;;;;;5154563;28;20046;-73
2022/09/15 01:44:36;;;;;;;1.88;1.20;;;20.00;99.90;;;;;;5141759;28;20584;-73
2022/09/15 01:47:20;;;;;;;2.47;1.27;;;20.10;99.90;;;;;;5140516;28;20528;-72
2022/09/15 01:50:02;;;;;;;1.98;1.40;;;20.00;99.90;;;;;;5157034;28;20042;-73
2022/09/15 01:52:34;;;;;;;2.45;2.00;;;20.00;99.90;;;;;;5148336;28;20068;-73
2022/09/15 01:55:15;;;;;;;3.72;1.17;;;19.90;99.90;;;;;;5140697;28;20590;-74
2022/09/15 01:57:51;;;;;;;3.33;1.45;;;19.90;99.90;;;;;;5143256;28;20476;-73
2022/09/15 02:00:29;;;;;;;2.45;1.20;;;19.90;99.90;;;;;;5220041;28;20044;-72
2022/09/15 02:03:11;;;;;;;3.60;1.30;;;19.90;99.90;;;;;;5203054;28;20045;-73
2022/09/15 02:05:57;;;;;;;2.80;1.10;;;20.00;99.90;;;;;;5208733;28;20335;-73
2022/09/15 02:09:00;;;;;;;3.45;1.30;;;19.90;99.90;;;;;;5182197;28;20210;-73
2022/09/15 02:11:34;;;;;;;1.85;1.10;;;19.90;99.90;;;;;;5192328;28;20052;-73
2022/09/15 02:14:16;;;;;;;1.83;1.30;;;19.80;99.90;;;;;;5198395;28;20242;-73
2022/09/15 02:16:51;;;;;;;3.85;1.65;;;19.70;99.90;;;;;;5201035;28;20463;-73
2022/09/15 02:19:35;;;;;;;2.85;1.52;;;19.70;99.90;;;;;;5207725;28;20045;-72
2022/09/15 02:22:26;;;;;;;2.38;1.27;;;19.60;99.90;;;;;;5202627;28;20047;-72
2022/09/15 02:25:11;;;;;;;1.08;0.98;;;19.60;99.90;;;;;;5198066;28;20028;-73
2022/09/15 02:27:49;;;;;;;1.73;1.30;;;19.60;99.90;;;;;;5200039;28;20048;-74
2022/09/15 02:30:26;;;;;;;3.25;1.10;;;19.60;99.90;;;;;;5219065;28;20049;-72
2022/09/15 02:33:07;;;;;;;4.25;1.20;;;19.70;99.90;;;;;;5202823;28;20017;-72
2022/09/15 02:35:43;;;;;;;5.80;1.20;;;19.80;99.90;;;;;;5183057;28;20068;-72
2022/09/15 02:38:17;;;;;;;1.30;1.20;;;19.90;99.90;;;;;;5219303;28;20047;-73
2022/09/15 02:40:48;;;;;;;3.03;1.25;;;19.90;99.90;;;;;;5201106;28;20052;-74
2022/09/15 02:43:22;;;;;;;6.80;1.30;;;19.90;99.90;;;;;;5180987;28;20326;-73
2022/09/15 02:45:53;;;;;;;3.13;1.38;;;19.90;99.90;;;;;;5195692;28;20067;-72
2022/09/15 02:48:27;;;;;;;3.13;2.05;;;19.80;99.90;;;;;;5202197;28;20371;-72
2022/09/15 02:51:00;;;;;;;3.50;1.00;;;19.70;99.90;;;;;;5206546;28;20140;-72
2022/09/15 02:53:32;;;;;;;1.63;1.30;;;19.60;99.90;;;;;;5164511;28;20029;-72
2022/09/15 02:56:05;;;;;;;2.05;1.60;;;19.60;99.90;;;;;;5194192;28;20039;-72
2022/09/15 02:58:41;;;;;;;1.40;1.30;;;19.50;99.90;;;;;;5198044;28;20030;-74
2022/09/15 03:01:18;;;;;;;4.88;1.60;;;19.40;99.90;;;;;;5214197;28;20036;-74
2022/09/15 03:03:59;;;;;;;4.40;1.45;;;19.30;99.90;;;;;;5218994;28;20049;-74
2022/09/15 03:06:39;;;;;;;2.63;2.00;;;19.10;99.90;;;;;;5188433;28;20218;-74
2022/09/15 03:09:13;;;;;;;2.95;1.50;;;19.00;99.90;;;;;;5218957;28;20032;-73
2022/09/15 03:11:45;;;;;;;2.63;1.45;;;18.90;99.90;;;;;;5203641;28;20521;-74
2022/09/15 03:14:20;;;;;;;3.35;1.77;;;18.80;99.90;;;;;;5192272;28;20049;-74
2022/09/15 03:16:52;;;;;;;;;;;18.70;99.90;;;;;;5225578;28;20253;-73
2022/09/15 03:19:26;;;;;;;2.55;1.60;;;18.50;99.90;;;;;;5216941;28;19927;-74
2022/09/15 03:22:00;;;;;;;1.35;1.25;;;18.40;99.90;;;;;;5218854;28;20033;-73
2022/09/15 03:24:32;;;;;;;;;;;18.30;99.90;;;;;;5218791;28;20041;-73
2022/09/15 03:27:09;;;;;;;2.00;1.80;;;18.30;99.90;;;;;;5214994;28;19927;-73
2022/09/15 03:29:45;;;;;;;2.22;2.00;;;18.20;99.90;;;;;;5218863;28;20421;-73
2022/09/15 03:32:22;;;;;;;4.72;1.92;;;18.20;99.90;;;;;;5201551;28;20502;-73
2022/09/15 03:34:56;;;;;;;5.00;1.95;;;18.20;99.90;;;;;;5217823;28;20033;-73
2022/09/15 03:37:30;;;;;;;4.45;1.70;;;18.10;99.90;;;;;;5184293;28;20029;-73
2022/09/15 03:40:09;;;;;;;3.95;2.03;;;18.10;99.90;;;;;;5217261;28;20224;-73
2022/09/15 03:42:43;;;;;;;2.10;1.90;;;18.10;99.90;;;;;;5201042;28;20272;-73
2022/09/15 03:45:15;;;;;;;4.57;1.65;;;18.10;99.90;;;;;;5222867;28;20163;-73
2022/09/15 03:47:46;;;;;;;3.28;1.85;;;18.00;99.90;;;;;;5197902;28;20041;-73
2022/09/15 03:50:18;;;;;;;3.28;2.00;;;17.90;99.90;;;;;;5199498;28;20055;-73
2022/09/15 03:52:52;;;;;;;1.77;1.60;;;18.00;99.90;;;;;;5221825;28;20036;-73
2022/09/15 03:55:32;;;;;;;3.15;1.85;;;17.90;99.90;;;;;;5221513;28;20033;-73
2022/09/15 03:58:03;;;;;;;1.75;1.50;;;17.90;99.90;;;;;;5205129;28;20188;-73
2022/09/15 04:00:37;;;;;;;2.03;1.70;;;17.90;99.90;;;;;;5221904;28;20049;-73
2022/09/15 04:03:09;;;;;;;2.45;2.00;;;17.90;99.90;;;;;;5203365;28;20040;-73
2022/09/15 04:05:46;;;;;;;2.63;1.70;;;17.80;99.90;;;;;;5209636;28;20069;-73
2022/09/15 04:08:20;;;;;;;2.75;1.60;;;17.80;99.90;;;;;;5201104;28;20044;-74
2022/09/15 04:11:02;;;;;;;1.45;1.35;;;17.80;99.90;;;;;;5195830;28;20216;-74
2022/09/15 04:13:35;;;;;;;3.17;1.40;;;17.70;99.90;;;;;;5216388;28;20041;-73
2022/09/15 04:16:14;;;;;;;1.70;1.60;;;17.60;99.90;;;;;;5221898;28;20305;-74
2022/09/15 04:18:49;;;;;;;2.33;1.73;;;17.70;99.90;;;;;;5222016;28;20130;-72
2022/09/15 04:21:24;;;;;;;3.28;2.03;;;17.60;99.90;;;;;;5221024;28;20033;-73
2022/09/15 04:23:56;;;;;;;2.22;1.85;;;17.50;99.90;;;;;;5220759;28;20084;-72
2022/09/15 04:26:31;;;;;;;4.05;2.10;;;17.40;99.90;;;;;;5221659;28;20351;-74
2022/09/15 04:29:12;;;;;;;2.30;1.73;;;17.30;99.90;;;;;;5200149;28;20142;-72
2022/09/15 04:31:43;;;;;;;2.05;1.85;;;17.30;99.90;;;;;;5191299;28;20033;-74
2022/09/15 04:34:15;;;;;;;2.60;2.08;;;17.30;99.90;;;;;;5206494;28;20466;-74
2022/09/15 04:36:52;;;;;;;2.55;1.77;;;17.30;99.90;;;;;;5203533;28;20055;-74
2022/09/15 04:39:26;;;;;;;3.88;1.70;;;17.30;99.90;;;;;;5202511;28;20041;-72
2022/09/15 04:41:59;;;;;;;2.17;1.70;;;17.20;99.90;;;;;;5236270;28;20040;-73
2022/09/15 04:44:32;;;;;;;2.88;1.77;;;17.40;99.90;;;;;;5224897;28;20062;-73
2022/09/15 04:47:09;;;;;;;3.20;1.50;;;17.50;99.90;;;;;;5224114;28;20045;-72
2022/09/15 04:49:47;;;;;;;2.25;1.20;;;17.90;99.90;;;;;;5226257;28;20040;-72
2022/09/15 04:52:18;;;;;;;4.03;1.55;;;18.20;99.90;;;;;;5212506;28;20051;-73
2022/09/15 04:54:58;;;;;;;1.38;1.20;;;18.50;99.90;;;;;;5220119;28;20049;-72
2022/09/15 04:57:32;;;;;;;1.88;1.67;;;18.80;99.90;;;;;;5202147;28;20364;-72
2022/09/15 05:00:10;;;;;;;3.80;1.45;;;19.10;99.90;;;;;;5201044;28;20045;-73
2022/09/15 05:02:42;;;;;;;1.98;1.23;;;19.10;99.90;;;;;;5186271;28;20056;-73
2022/09/15 05:05:18;;;;;;;3.47;1.45;;;19.20;99.90;;;;;;5171709;28;20883;-73
2022/09/15 05:07:52;;;;;;;1.92;1.40;;;19.20;99.90;;;;;;5182123;28;20052;-73
2022/09/15 05:10:24;;;;;;;3.22;1.08;;;19.20;99.90;;;;;;5211306;28;20040;-72
2022/09/15 05:12:58;;;;;;;3.45;1.20;;;19.40;99.90;;;;;;5197772;28;20041;-73
2022/09/15 05:15:32;;;;;;;3.13;1.92;;;19.50;99.90;;;;;;5185439;28;20025;-72
2022/09/15 05:18:07;;;;;;;5.53;1.50;;;19.70;99.90;;;;;;5221773;28;20043;-73
2022/09/15 05:20:43;;;;;;;4.68;1.60;;;19.80;99.90;;;;;;5197111;28;20044;-73
2022/09/15 05:23:15;;;;;;;2.78;1.00;;;19.90;99.90;;;;;;5219704;28;20289;-73
2022/09/15 05:26:00;;;;;;;1.45;1.17;;;20.00;99.90;;;;;;5186349;28;20055;-72
2022/09/15 05:28:38;;;;;;;1.30;1.20;;;20.20;99.90;;;;;;5220599;28;20549;-73
2022/09/15 05:31:27;;;;;;;2.28;1.10;;;20.40;99.90;;;;;;5202447;28;20400;-73
2022/09/15 05:34:04;;;;;;;3.03;1.20;;;20.50;99.90;;;;;;5186937;28;20066;-73
2022/09/15 05:36:41;;;;;;;2.03;1.08;;;20.50;99.90;;;;;;5196712;28;20037;-73
2022/09/15 05:39:12;;;;;;;1.20;1.00;;;20.60;99.90;;;;;;5208479;28;20046;-72
2022/09/15 05:41:46;;;;;;;1.73;1.10;;;20.60;99.90;;;;;;5181468;28;20045;-73
2022/09/15 05:44:23;;;;;;;1.73;1.30;;;20.70;99.90;;;;;;5200792;28;20037;-73
2022/09/15 05:46:59;;;;;;;1.02;0.90;;;20.70;99.90;;;;;;5185135;28;20035;-73
2022/09/15 05:49:36;;;;;;;3.70;1.00;;;20.70;99.90;;;;;;5216472;28;20379;-73
2022/09/15 05:52:12;;;;;;;2.20;1.25;;;20.70;99.90;;;;;;5199488;28;20033;-73
2022/09/15 05:54:46;;;;;;;1.10;0.90;;;20.80;99.90;;;;;;5196583;28;20045;-74
2022/09/15 05:57:23;;;;;;;2.00;1.23;;;20.90;99.90;;;;;;5181136;28;20041;-74
2022/09/15 05:59:55;;;;;;;0.82;0.82;;;21.00;99.90;;;;;;5204258;28;20033;-73
2022/09/15 06:02:26;;;;;;;1.40;1.10;;;21.10;99.90;;;;;;5199998;28;20582;-74
2022/09/15 06:05:05;;;;;;;2.08;1.67;;;21.30;99.90;;;;;;5196117;28;20056;-73
2022/09/15 06:07:37;;;;;;;5.70;1.38;;;21.30;99.90;;;;;;5238957;28;20048;-72
2022/09/15 06:10:09;;;;;;;1.40;1.08;;;21.40;99.90;;;;;;5220064;28;20044;-72
2022/09/15 06:12:41;;;;;;;1.88;1.67;;;21.40;99.90;;;;;;5240086;28;20203;-73
2022/09/15 06:15:12;;;;;;;3.30;1.13;;;21.50;99.90;;;;;;5204860;28;20036;-73
2022/09/15 06:17:49;;;;;;;1.20;1.00;;;21.40;99.90;;;;;;5203676;28;20071;-73
2022/09/15 06:20:21;;;;;;;6.03;1.00;;;21.40;99.90;;;;;;5214301;28;20047;-72
2022/09/15 06:22:53;;;;;;;2.03;1.23;;;21.40;99.90;;;;;;5187630;28;20517;-72
2022/09/15 06:25:28;;;;;;;1.77;1.20;;;21.40;99.90;;;;;;5219534;28;20463;-72
2022/09/15 06:28:05;;;;;;;1.20;1.10;;;21.40;99.90;;;;;;5237996;28;20070;-72
2022/09/15 06:30:48;;;;;;;1.90;1.10;;;21.40;99.90;;;;;;5219557;28;20246;-73
2022/09/15 06:33:22;;;;;;;1.48;1.08;;;21.40;99.90;;;;;;5236162;28;20040;-72
2022/09/15 06:36:03;;;;;;;1.10;1.05;;;21.50;99.90;;;;;;5231142;28;20032;-72
2022/09/15 06:38:34;;;;;;;1.98;1.30;;;21.50;99.90;;;;;;5208372;28;20059;-73
2022/09/15 06:41:10;;;;;;;1.95;1.20;;;21.60;99.90;;;;;;5232676;28;20322;-72
2022/09/15 06:43:47;;;;;;;1.85;1.25;;;21.70;99.90;;;;;;5220252;28;20044;-73
2022/09/15 06:46:24;;;;;;;1.75;1.20;;;21.70;99.90;;;;;;5218508;28;20040;-73
2022/09/15 06:49:01;;;;;;;2.38;1.10;;;21.70;99.90;;;;;;5187836;28;20032;-73
2022/09/15 06:51:35;;;;;;;4.20;1.10;;;21.80;99.90;;;;;;5218606;28;20034;-74
2022/09/15 06:54:10;;;;;;;1.88;1.23;;;21.80;99.90;;;;;;5219369;28;20044;-74
2022/09/15 06:56:43;;;;;;;1.55;1.20;;;21.80;99.90;;;;;;5219898;28;20037;-73
2022/09/15 06:59:17;;;;;;;1.75;1.10;;;21.90;99.90;;;;;;5237638;28;20062;-73
2022/09/15 07:01:56;;;;;;;1.83;1.10;;;21.90;99.90;;;;;;5209218;28;20045;-73
2022/09/15 07:04:31;;;;;;;1.30;1.20;;;21.80;99.90;;;;;;5214291;28;20521;-72
2022/09/15 07:07:06;;;;;;;3.20;1.10;;;21.90;99.90;;;;;;5222649;28;20043;-72
2022/09/15 07:09:39;;;;;;;;;;;22.00;99.90;;;;;;5218512;28;20479;-73
2022/09/15 07:12:10;;;;;;;1.10;0.90;;;22.20;99.90;;;;;;5197372;28;19929;-72
2022/09/15 07:14:44;;;;;;;1.33;1.08;;;22.20;99.90;;;;;;5211511;28;20039;-73
2022/09/15 07:17:20;;;;;;;3.07;1.03;;;22.20;99.90;;;;;;5219199;28;20053;-74
2022/09/15 07:19:52;;;;;;;2.90;1.10;;;22.30;99.90;;;;;;5218904;28;20276;-74
2022/09/15 07:22:26;;;;;;;1.10;0.98;;;22.30;99.90;;;;;;5216927;28;20134;-75
2022/09/15 07:25:00;;;;;;;1.20;1.05;;;22.30;99.90;;;;;;5216407;28;20057;-73
2022/09/15 07:27:31;;;;;;;3.22;1.23;;;22.30;99.90;;;;;;5217976;28;20033;-74
2022/09/15 07:30:08;;;;;;;1.55;0.90;;;22.30;99.90;;;;;;5217728;28;20434;-73
2022/09/15 07:32:42;;;;;;;2.13;1.13;;;22.30;99.90;;;;;;5225146;28;20071;-74
2022/09/15 07:35:14;;;;;;;2.90;1.38;;;22.40;99.90;;;;;;5216489;28;20039;-73
2022/09/15 07:37:48;;;;;;;1.25;0.85;;;22.40;99.90;;;;;;5238238;28;20037;-73
2022/09/15 07:40:23;;;;;;;1.58;1.00;;;22.40;99.90;;;;;;5225328;28;20028;-72
2022/09/15 07:42:56;;;;;;;2.45;1.00;;;22.40;99.90;;;;;;5215693;28;20044;-73
2022/09/15 07:45:28;;;;;;;2.20;1.00;;;22.40;99.90;;;;;;5211537;28;20045;-73
2022/09/15 07:47:59;;;;;;;3.05;1.25;;;22.40;99.90;;;;;;5216617;28;20025;-72
2022/09/15 07:50:36;;;;;;;2.35;1.30;;;22.40;99.90;;;;;;5199009;28;20047;-72
2022/09/15 07:53:12;;;;;;;2.25;1.48;;;22.50;99.90;;;;;;5213880;28;20032;-73
2022/09/15 07:55:48;;;;;;;3.95;2.28;;;22.50;99.90;;;;;;5231020;28;20045;-73
2022/09/15 07:58:28;;;;;;;1.40;1.20;;;22.40;99.90;;;;;;5214683;28;20037;-72
2022/09/15 08:01:13;;;;;;;1.30;1.00;;;22.30;99.90;;;;;;5213769;28;20033;-72
2022/09/15 08:03:50;;;;;;;1.95;0.95;;;22.30;99.90;;;;;;5214745;28;20039;-72
2022/09/15 08:06:25;;;;;;;5.22;1.08;;;22.20;99.90;;;;;;5197884;28;20100;-73
2022/09/15 08:09:00;;;;;;;2.17;1.40;;;22.10;99.90;;;;;;5218526;28;20051;-73
2022/09/15 08:11:34;;;;;;;6.55;1.55;;;22.10;99.90;;;;;;5219585;28;20033;-72
2022/09/15 08:14:08;;;;;;;1.98;1.10;;;22.10;99.90;;;;;;5220693;28;20025;-74
2022/09/15 08:16:40;;;;;;;2.28;1.20;;;22.10;99.90;;;;;;5201381;28;20479;-73
2022/09/15 08:19:15;;;;;;;1.77;1.30;;;22.00;99.90;;;;;;5216479;28;20051;-72
2022/09/15 08:21:49;;;;;;;1.77;1.15;;;21.70;99.90;;;;;;5216280;28;20107;-74
2022/09/15 08:24:21;;;;;;;3.10;0.95;;;21.40;99.90;;;;;;5212501;28;20044;-73
2022/09/15 08:26:53;;;;;;;1.83;1.05;;;21.10;99.90;;;;;;5215157;28;20310;-73
2022/09/15 08:29:25;;;;;;;5.60;1.35;;;21.00;99.90;;;;;;5214494;28;20041;-73
2022/09/15 08:31:58;;;;;;;1.27;1.17;;;21.00;99.90;;;;;;5212402;28;20032;-73
2022/09/15 08:34:31;;;;;;;2.50;1.10;;;20.90;99.90;;;;;;5216162;28;20057;-73
2022/09/15 08:37:07;;;;;;;1.83;1.30;;;21.00;99.90;;;;;;5165904;28;20045;-73
2022/09/15 08:39:42;;;;;;;1.55;1.20;;;21.20;99.90;;;;;;5229159;28;20039;-75
2022/09/15 08:42:22;;;;;;;;;;;21.40;99.90;;;;;;5215171;28;20060;-71
2022/09/15 08:45:26;;;;;;;2.55;1.10;;;21.50;99.90;;;;;;5199120;28;20254;-73
2022/09/15 08:48:04;;;;;;;1.02;0.95;;;21.60;99.90;;;;;;5214250;28;20027;-72
2022/09/15 08:50:42;;;;;;;2.78;1.20;;;21.90;99.90;;;;;;5201450;28;20479;-72
2022/09/15 08:53:20;;;;;;;2.83;0.98;;;21.90;99.90;;;;;;5218134;28;20461;-73
2022/09/15 08:55:58;;;;;;;1.05;0.95;;;22.10;99.90;;;;;;5203721;28;20025;-74
2022/09/15 08:58:36;;;;;;;3.25;0.90;;;22.10;99.90;;;;;;5216466;28;20033;-73
2022/09/15 09:01:20;;;;;;;2.78;1.05;;;22.20;99.90;;;;;;5211288;28;20040;-74
2022/09/15 09:04:38;;;;;;;4.40;1.30;;;22.40;99.90;;;;;;5214051;28;20047;-73
2022/09/15 09:07:49;;;;;;;1.17;0.90;;;22.40;99.90;;;;;;5198976;28;20049;-73
2022/09/15 09:10:25;;;;;;;1.88;1.00;;;22.40;99.90;;;;;;5222664;28;20044;-74
2022/09/15 09:13:37;;;;;;;2.58;1.27;;;22.50;99.90;;;;;;5212448;28;20060;-73
2022/09/15 09:16:36;;;;;;;2.10;1.20;;;22.50;99.90;;;;;;5173803;28;20042;-73
2022/09/15 09:19:41;;;;;;;2.40;1.20;;;22.40;99.90;;;;;;5214765;28;20043;-73
2022/09/15 09:22:22;;;;;;;2.70;1.17;;;22.30;99.90;;;;;;5213192;28;20044;-72
2022/09/15 09:24:58;;;;;;;1.95;1.20;;;22.30;99.90;;;;;;5213649;28;20029;-73
2022/09/15 09:27:37;;;;;;;2.58;0.93;;;22.20;99.90;;;;;;5207881;28;20040;-72
2022/09/15 09:30:18;;;;;;;1.85;1.02;;;22.10;99.90;;;;;;5203157;28;20570;-73
2022/09/15 09:33:25;;;;;;;2.00;1.10;;;22.00;99.90;;;;;;5200566;28;20033;-74
2022/09/15 09:36:01;;;;;;;3.28;0.90;;;22.00;99.90;;;;;;5207080;28;20566;-72
2022/09/15 09:38:42;;;;;;;2.75;0.90;;;22.10;99.90;;;;;;5213272;28;20379;-74
2022/09/15 09:41:16;;;;;;;1.90;1.20;;;22.10;99.90;;;;;;5215999;28;20450;-73
2022/09/15 09:43:54;;;;;;;2.50;1.30;;;22.10;99.90;;;;;;5216429;28;20433;-73
2022/09/15 09:46:25;;;;;;;1.83;1.08;;;22.20;99.90;;;;;;5208787;28;20045;-71
2022/09/15 09:49:22;;;;;;;1.10;0.88;;;22.20;99.90;;;;;;5217526;28;20041;-73
2022/09/15 09:52:02;;;;;;;1.38;0.80;;;22.00;99.90;;;;;;5216125;28;20033;-74
2022/09/15 09:54:34;;;;;;;1.10;1.00;;;21.70;99.90;;;;;;5191649;28;20048;-74
2022/09/15 09:57:29;;;;;;;2.35;1.20;;;21.50;99.90;;;;;;5211559;28;20241;-74
2022/09/15 10:00:13;;;;;;;1.00;0.90;;;21.40;99.90;;;;;;5205888;28;20363;-72
2022/09/15 10:02:50;;;;;;;;;;;21.30;99.90;;;;;;5216713;28;20055;-72
2022/09/15 10:05:27;;;;;;;2.67;1.23;;;21.00;99.90;;;;;;5219420;28;19924;-72
2022/09/15 10:08:05;;;;;;;1.25;1.13;;;20.60;99.90;;;;;;5222520;28;20033;-71
2022/09/15 10:11:05;;;;;;;1.75;1.17;;;20.30;99.90;;;;;;5219900;28;20040;-71
2022/09/15 10:13:51;;;;;;;1.35;1.20;;;20.10;99.90;;;;;;5220021;28;20028;-73
2022/09/15 10:16:23;;;;;;;1.60;1.50;;;19.90;99.90;;;;;;5220620;28;20032;-73
2022/09/15 10:18:59;;;;;;;1.35;1.10;;;19.80;99.90;;;;;;5220175;28;20070;-72
2022/09/15 10:21:37;;;;;;;2.25;1.30;;;19.80;99.90;;;;;;5206970;28;20154;-73
2022/09/15 10:24:40;;;;;;;0.98;0.98;;;19.80;99.90;;;;;;5229185;28;20363;-73
2022/09/15 10:27:30;;;;;;;2.72;1.10;;;19.80;99.90;;;;;;5225176;28;20036;-72
2022/09/15 10:30:19;;;;;;;1.73;1.05;;;19.70;99.90;;;;;;5216342;28;20059;-72
2022/09/15 10:32:51;;;;;;;1.63;1.02;;;19.70;99.90;;;;;;5231248;28;20031;-72
2022/09/15 10:35:43;;;;;;;1.20;1.10;;;19.80;99.90;;;;;;5244853;28;20044;-72
2022/09/15 10:38:41;;;;;;;1.58;1.05;;;20.00;99.90;;;;;;5217027;28;20058;-72
2022/09/15 10:41:35;;;;;;;3.58;0.90;;;20.20;99.90;;;;;;5210041;28;20493;-72
2022/09/15 10:44:43;;;;;;;6.38;1.33;;;20.40;99.90;;;;;;5238380;28;20028;-73
2022/09/15 10:47:51;;;;;;;0.70;0.68;;;20.60;99.90;;;;;;5214789;28;20051;-73
2022/09/15 10:50:53;;;;;;;2.40;1.08;;;20.70;99.90;;;;;;5219770;28;20314;-71
2022/09/15 10:54:12;;;;;;;1.27;0.70;;;20.90;99.90;;;;;;5231281;28;20055;-73
2022/09/15 10:56:48;;;;;;;0.80;0.80;;;21.00;99.90;;;;;;5238934;28;20047;-73
2022/09/15 10:59:47;;;;;;;1.70;0.80;;;21.00;99.90;;;;;;5215491;28;20040;-73
2022/09/15 11:02:59;;;;;;;1.15;1.00;;;21.10;99.90;;;;;;5236649;28;20032;-72
2022/09/15 11:06:05;;;;;;;1.10;1.00;;;21.10;99.90;;;;;;5167328;28;20303;-72
2022/09/15 11:09:28;;;;;;;1.35;1.10;;;21.00;99.90;;;;;;5198471;28;20105;-73
2022/09/15 11:12:44;;;;;;;1.80;1.13;;;20.90;99.90;;;;;;5150736;28;20050;-73
2022/09/15 11:16:13;;;;;;;0.88;0.77;;;20.60;99.90;;;;;;5152396;28;20065;-72
2022/09/15 11:19:00;;;;;;;1.13;0.85;;;20.40;99.90;;;;;;5117578;28;20073;-73
2022/09/15 11:21:45;;;;;;;0.93;0.80;;;20.40;99.90;;;;;;5154307;28;20177;-74
2022/09/15 11:24:34;;;;;;;1.20;0.80;;;20.40;99.90;;;;;;5146717;28;20383;-75
2022/09/15 11:27:15;;;;;;;1.25;1.15;;;20.50;99.90;;;;;;5159007;28;20286;-73
2022/09/15 11:29:49;;;;;;;1.15;0.70;;;20.50;99.90;;;;;;5154386;28;20038;-72
2022/09/15 11:32:53;;;;;;;;;;;20.50;99.90;;;;;;5138068;28;20065;-72
2022/09/15 11:35:50;;;;;;;2.13;0.88;;;20.60;99.90;;;;;;5074418;28;20123;-72
2022/09/15 11:38:51;;;;;;;0.73;0.70;;;20.60;99.90;;;;;;5146796;28;20038;-72
2022/09/15 11:41:43;;;;;;;2.95;1.10;;;20.50;99.90;;;;;;5147517;28;20053;-72
2022/09/15 11:44:42;;;;;;;0.85;0.80;;;20.10;99.90;;;;;;5120622;28;20038;-74
2022/09/15 11:47:28;;;;;;;1.30;1.17;;;19.80;99.90;;;;;;5169067;28;20045;-74
2022/09/15 11:50:19;;;;;;;1.58;1.10;;;19.40;99.90;;;;;;5210709;28;20032;-74
2022/09/15 11:53:10;;;;;;;2.60;1.10;;;19.30;99.90;;;;;;5208645;28;20029;-74
2022/09/15 11:56:00;;;;;;;2.15;0.90;;;19.10;99.90;;;;;;5215142;28;20037;-74
2022/09/15 11:59:02;;;;;;;2.40;1.10;;;18.90;99.90;;;;;;5204975;28;20041;-74
2022/09/15 12:02:18;;;;;;;0.90;0.90;;;18.80;99.90;;;;;;5211276;28;20619;-74
2022/09/15 12:05:03;;;;;;;;;;;18.70;99.90;;;;;;5202757;28;20053;-73
2022/09/15 12:07:52;;;;;;;1.00;1.00;;;18.60;99.90;;;;;;5223422;28;19923;-74
2022/09/15 12:10:36;;;;;;;2.13;1.92;;;18.70;99.90;;;;;;5218902;28;20044;-73
2022/09/15 12:13:22;;;;;;;1.27;1.15;;;18.60;99.90;;;;;;5220016;28;20471;-72
2022/09/15 12:15:59;;;;;;;1.00;1.00;;;18.70;99.90;;;;;;5220950;28;20043;-73
2022/09/15 12:18:58;;;;;;;1.95;1.08;;;18.80;99.90;;;;;;5218677;28;20067;-72
2022/09/15 12:21:38;;;;;;;1.38;1.13;;;18.90;99.90;;;;;;5217010;28;20033;-72
2022/09/15 12:24:24;;;;;;;1.33;0.98;;;18.90;99.90;;;;;;5211303;28;20055;-74
2022/09/15 12:27:02;;;;;;;2.47;1.00;;;18.90;99.90;;;;;;5217247;28;20403;-73
2022/09/15 12:29:38;;;;;;;2.83;1.10;;;19.00;99.90;;;;;;5215796;28;20044;-72
2022/09/15 12:32:32;;;;;;;2.50;1.30;;;19.10;99.90;;;;;;5217051;28;20036;-73
2022/09/15 12:35:18;;;;;;;1.15;1.05;;;18.90;99.90;;;;;;5218562;28;20501;-73
2022/09/15 12:37:59;;;;;;;2.33;1.30;;;19.00;99.90;;;;;;5217506;28;20049;-73
2022/09/15 12:40:41;;;;;;;2.85;1.20;;;18.90;99.90;;;;;;5220000;28;20028;-74
2022/09/15 12:43:19;;;;;;;2.85;1.30;;;18.90;99.90;;;;;;5219753;28;20029;-73
2022/09/15 12:46:01;;;;;;;1.67;1.20;;;19.00;99.90;;;;;;5221792;28;20310;-73
2022/09/15 12:48:35;;;;;;;3.58;1.10;;;19.10;99.90;;;;;;5222890;28;20179;-74
2022/09/15 12:51:11;;;;;;;2.35;1.20;;;19.20;99.90;;;;;;5211202;28;20138;-75
2022/09/15 12:54:01;;;;;;;1.52;1.00;;;19.20;99.90;;;;;;5206993;28;20215;-74
2022/09/15 12:56:34;;;;;;;4.88;1.33;;;19.40;99.90;;;;;;5210554;28;20045;-73
2022/09/15 12:59:10;;;;;;;2.08;0.93;;;19.50;99.90;;;;;;5210771;28;20043;-73
2022/09/15 13:01:49;;;;;;;1.05;0.93;;;19.60;99.90;;;;;;5194167;28;20059;-73
2022/09/15 13:04:42;;;;;;;1.70;1.08;;;19.70;99.90;;;;;;5192858;28;20036;-73
2022/09/15 13:07:13;;;;;;;1.52;1.00;;;20.00;99.90;;;;;;5227835;28;20033;-74
2022/09/15 13:10:16;;;;;;;3.22;1.17;;;20.50;99.90;;;;;;5234080;28;20059;-74
2022/09/15 13:13:01;;;;;;;0.88;0.82;;;21.10;99.90;;;;;;5216548;28;20512;-74
2022/09/15 13:15:44;;;;;;;1.42;1.20;;;21.30;99.90;;;;;;5210533;28;20574;-74
2022/09/15 13:18:18;;;;;;;1.58;0.88;;;21.40;99.90;;;;;;5221739;28;20373;-72
2022/09/15 13:21:02;;;;;;;2.17;0.90;;;21.30;99.90;;;;;;5216247;28;20044;-73
2022/09/15 13:23:41;;;;;;;4.82;1.33;;;21.40;99.90;;;;;;5195612;28;20029;-74
2022/09/15 13:26:21;;;;;;;3.45;0.80;;;21.20;99.90;;;;;;5205258;28;20028;-74
2022/09/15 13:28:55;;;;;;;5.75;0.95;;;21.10;99.90;;;;;;5198948;28;20463;-72
2022/09/15 13:31:48;;;;;;;2.33;1.10;;;20.90;99.90;;;;;;5216205;28;20250;-73
2022/09/15 13:35:21;;;;;;;1.55;1.00;;;20.80;99.90;;;;;;5214413;28;20875;-72
2022/09/15 13:38:15;;;;;;;1.60;1.00;;;20.70;99.90;;;;;;5216165;28;20130;-72
2022/09/15 13:41:11;;;;;;;0.90;0.80;;;20.80;99.90;;;;;;5229859;28;20039;-72
2022/09/15 13:44:03;;;;;;;0.77;0.77;;;20.80;99.90;;;;;;5214866;28;20044;-72
2022/09/15 13:46:56;;;;;;;2.33;0.88;;;21.00;99.90;;;;;;5215829;28;20047;-72
2022/09/15 13:49:45;;;;;;;2.55;0.98;;;21.10;99.90;;;;;;5216050;28;20036;-74
2022/09/15 13:52:21;;;;;;;1.55;1.10;;;21.20;99.90;;;;;;5214676;28;20045;-71
2022/09/15 13:55:26;;;;;;;0.93;0.90;;;21.40;99.90;;;;;;5215185;28;20238;-72
2022/09/15 13:58:00;;;;;;;;;;;21.50;99.90;;;;;;5198481;28;20032;-72
2022/09/15 14:00:58;;;;;;;0.88;0.88;;;21.60;99.90;;;;;;5217175;28;19917;-73